sensor_id;sensor_type;location;lat;lon;timestamp;temperature;humidity
70606;DHT22;58173;52.500;5.494;2023-03-05T15:22:11;13.50;57.80
70606;DHT22;58173;52.500;5.494;2023-03-05T15:26:22;14.70;60.10
70606;DHT22;58173;52.500;5.494;2023-03-05T15:28:48;15.70;59.90
70606;DHT22;58173;52.500;5.494;2023-03-05T15:31:16;16.40;58.80
70606;DHT22;58173;52.500;5.494;2023-03-05T15:33:43;17.00;58.00
70606;DHT22;58173;52.500;5.494;2023-03-05T15:36:10;17.40;57.40
70606;DHT22;58173;52.500;5.494;2023-03-05T15:38:37;17.80;56.80
70606;DHT22;58173;52.500;5.494;2023-03-05T15:41:04;18.20;56.10
70606;DHT22;58173;52.500;5.494;2023-03-05T15:45:17;18.60;52.60
70606;DHT22;58173;52.500;5.494;2023-03-05T15:47:44;18.20;39.60
70606;DHT22;58173;52.500;5.494;2023-03-05T15:50:11;17.40;41.80
70606;DHT22;58173;52.500;5.494;2023-03-05T15:52:37;16.60;42.90
70606;DHT22;58173;52.500;5.494;2023-03-05T15:55:04;16.00;43.60
70606;DHT22;58173;52.500;5.494;2023-03-05T15:57:35;15.40;44.10
70606;DHT22;58173;52.500;5.494;2023-03-05T16:00:05;14.80;44.70
70606;DHT22;58173;52.500;5.494;2023-03-05T16:02:35;14.30;45.40
70606;DHT22;58173;52.500;5.494;2023-03-05T16:05:03;13.80;45.80
70606;DHT22;58173;52.500;5.494;2023-03-05T16:07:30;13.30;46.60
70606;DHT22;58173;52.500;5.494;2023-03-05T16:09:58;13.00;47.30
70606;DHT22;58173;52.500;5.494;2023-03-05T16:12:30;12.60;47.90
70606;DHT22;58173;52.500;5.494;2023-03-05T16:14:58;12.30;48.50
70606;DHT22;58173;52.500;5.494;2023-03-05T16:17:25;12.00;48.90
70606;DHT22;58173;52.500;5.494;2023-03-05T16:19:53;11.70;49.30
70606;DHT22;58173;52.500;5.494;2023-03-05T16:22:20;11.30;49.90
70606;DHT22;58173;52.500;5.494;2023-03-05T16:24:47;11.00;50.20
70606;DHT22;58173;52.500;5.494;2023-03-05T16:27:14;10.70;50.80
70606;DHT22;58173;52.500;5.494;2023-03-05T16:29:40;10.40;51.20
70606;DHT22;58173;52.500;5.494;2023-03-05T16:32:08;10.30;51.70
70606;DHT22;58173;52.500;5.494;2023-03-05T16:34:35;10.20;52.30
70606;DHT22;58173;52.500;5.494;2023-03-05T16:37:02;10.10;52.50
70606;DHT22;58173;52.500;5.494;2023-03-05T16:39:32;10.10;52.90
70606;DHT22;58173;52.500;5.494;2023-03-05T16:41:59;9.90;53.20
70606;DHT22;58173;52.500;5.494;2023-03-05T16:44:26;9.80;53.30
70606;DHT22;58173;52.500;5.494;2023-03-05T16:46:53;9.70;53.60
70606;DHT22;58173;52.500;5.494;2023-03-05T16:49:21;9.60;53.80
70606;DHT22;58173;52.500;5.494;2023-03-05T16:51:48;9.60;54.20
70606;DHT22;58173;52.500;5.494;2023-03-05T16:54:15;9.50;54.30
70606;DHT22;58173;52.500;5.494;2023-03-05T16:56:42;9.40;54.50
70606;DHT22;58173;52.500;5.494;2023-03-05T16:59:09;9.40;54.70
70606;DHT22;58173;52.500;5.494;2023-03-05T17:01:37;9.30;54.70
70606;DHT22;58173;52.500;5.494;2023-03-05T17:04:04;9.20;54.90
70606;DHT22;58173;52.500;5.494;2023-03-05T17:06:31;9.10;55.10
